createdAt,value
2019-05-01T00:01:33.260Z,14.03
2019-05-01T00:04:19.002Z,14.03
2019-05-01T00:06:48.059Z,13.45
2019-05-01T00:09:15.310Z,13.28
2019-05-01T00:11:42.592Z,12.78
2019-05-01T00:14:09.800Z,12.60
2019-05-01T00:16:38.542Z,12.82
2019-05-01T00:19:05.820Z,12.07
2019-05-01T00:21:33.411Z,12.93
2019-05-01T00:24:00.701Z,11.30
2019-05-01T00:26:27.995Z,11.73
2019-05-01T00:28:55.241Z,10.85
2019-05-01T00:31:22.478Z,11.08
2019-05-01T00:33:49.760Z,11.65
2019-05-01T00:36:18.279Z,10.13
2019-05-01T00:38:45.542Z,10.05
2019-05-01T00:41:12.796Z,10.18
2019-05-01T00:43:40.022Z,10.50
2019-05-01T00:46:07.265Z,10.40
2019-05-01T00:48:34.566Z,10.43
2019-05-01T00:51:01.797Z,10.63
2019-05-01T00:53:29.109Z,10.98
2019-05-01T00:55:58.571Z,10.63
2019-05-01T00:58:33.455Z,10.78
2019-05-01T01:01:14.567Z,10.45
2019-05-01T01:03:41.767Z,10.93
2019-05-01T01:06:09.314Z,10.53
2019-05-01T01:08:36.593Z,10.75
2019-05-01T01:11:03.848Z,10.50
2019-05-01T01:13:31.086Z,10.75
2019-05-01T01:15:58.906Z,10.23
2019-05-01T01:18:26.174Z,9.68
2019-05-01T01:20:53.365Z,10.78
2019-05-01T01:23:20.680Z,10.15
2019-05-01T01:25:47.916Z,9.68
2019-05-01T01:28:15.221Z,9.38
2019-05-01T01:30:49.913Z,9.43
2019-05-01T01:33:11.514Z,9.63
2019-05-01T01:35:38.769Z,9.30
2019-05-01T01:38:06.049Z,10.10
2019-05-01T01:40:34.015Z,8.88
2019-05-01T01:43:20.473Z,9.33
2019-05-01T01:45:56.511Z,9.15
2019-05-01T01:48:24.394Z,9.30
2019-05-01T01:50:52.016Z,9.08
2019-05-01T01:53:19.265Z,8.68
2019-05-01T01:55:46.747Z,9.85
2019-05-01T01:58:15.413Z,9.23
2019-05-01T02:00:47.344Z,9.13
2019-05-01T02:03:14.581Z,9.75
2019-05-01T02:05:43.604Z,9.70
2019-05-01T02:08:10.873Z,9.33
2019-05-01T02:10:43.096Z,9.28
2019-05-01T02:13:07.152Z,9.23
2019-05-01T02:15:34.454Z,9.68
2019-05-01T02:18:02.683Z,8.73
2019-05-01T02:20:29.910Z,9.18
2019-05-01T02:22:57.191Z,10.03
2019-05-01T02:25:24.966Z,10.03
2019-05-01T02:27:54.029Z,9.33
2019-05-01T02:30:21.885Z,9.30
2019-05-01T02:32:49.269Z,9.53
2019-05-01T02:35:16.485Z,9.53
2019-05-01T02:37:43.790Z,9.80
2019-05-01T02:40:15.848Z,9.48
2019-05-01T02:42:43.073Z,9.63
2019-05-01T02:45:10.341Z,10.65
2019-05-01T02:47:37.540Z,9.83
2019-05-01T02:50:06.235Z,10.15
2019-05-01T02:52:33.636Z,9.45
2019-05-01T02:55:02.099Z,10.03
2019-05-01T02:57:29.431Z,10.75
2019-05-01T02:59:56.873Z,10.13
2019-05-01T03:02:24.208Z,10.58
2019-05-01T03:04:51.616Z,10.30
2019-05-01T03:07:18.857Z,10.75
2019-05-01T03:09:46.078Z,10.85
2019-05-01T03:12:14.205Z,10.68
2019-05-01T03:14:41.733Z,10.95
2019-05-01T03:17:10.781Z,10.05
2019-05-01T03:19:45.681Z,9.58
2019-05-01T03:22:17.719Z,10.30
2019-05-01T03:24:44.967Z,10.95
2019-05-01T03:27:12.228Z,9.48
2019-05-01T03:29:39.644Z,9.98
2019-05-01T03:32:18.267Z,9.73
2019-05-01T03:34:35.972Z,9.88
2019-05-01T03:37:03.739Z,10.30
2019-05-01T03:39:31.040Z,10.25
2019-05-01T03:41:58.289Z,10.15
2019-05-01T03:44:25.489Z,9.75
2019-05-01T03:46:52.811Z,9.68
2019-05-01T03:49:20.013Z,10.75
2019-05-01T03:51:47.278Z,11.28
2019-05-01T03:54:14.557Z,12.98
2019-05-01T03:56:41.794Z,14.65
2019-05-01T03:59:09.027Z,14.45
2019-05-01T04:01:41.086Z,11.03
2019-05-01T04:04:19.019Z,11.10
2019-05-01T04:06:46.312Z,10.40
2019-05-01T04:09:13.902Z,9.08
2019-05-01T04:11:41.121Z,9.58
2019-05-01T04:14:08.399Z,9.93
2019-05-01T04:16:35.614Z,9.45
2019-05-01T04:19:03.761Z,8.85
2019-05-01T04:21:32.864Z,9.05
2019-05-01T04:24:01.084Z,9.43
2019-05-01T04:26:28.340Z,9.10
2019-05-01T04:29:03.188Z,9.30
2019-05-01T04:31:35.998Z,8.90
2019-05-01T04:34:23.083Z,8.85
2019-05-01T04:37:07.127Z,9.15
2019-05-01T04:39:34.477Z,9.63
2019-05-01T04:42:02.115Z,10.43
2019-05-01T04:44:29.369Z,9.68
2019-05-01T04:46:56.629Z,9.25
2019-05-01T04:49:23.845Z,9.60
2019-05-01T04:51:51.069Z,9.50
2019-05-01T04:54:18.533Z,9.03
2019-05-01T04:56:45.805Z,9.33
2019-05-01T04:59:13.028Z,9.23
2019-05-01T05:01:52.491Z,10.53
2019-05-01T05:04:20.611Z,9.95
2019-05-01T05:06:47.839Z,9.85
2019-05-01T05:09:15.126Z,9.90
2019-05-01T05:11:47.239Z,10.25
2019-05-01T05:14:16.339Z,10.15
2019-05-01T05:16:45.388Z,9.43
2019-05-01T05:19:12.620Z,9.43
2019-05-01T05:21:39.906Z,8.65
2019-05-01T05:24:07.483Z,9.18
2019-05-01T05:26:34.735Z,8.88
2019-05-01T05:29:02.037Z,8.33
2019-05-01T05:31:30.277Z,8.53
2019-05-01T05:33:57.521Z,8.55
2019-05-01T05:36:24.805Z,8.93
2019-05-01T05:38:59.806Z,8.75
2019-05-01T05:41:27.126Z,8.63
2019-05-01T05:43:54.481Z,9.35
2019-05-01T05:46:21.724Z,8.38
2019-05-01T05:48:50.831Z,8.00
2019-05-01T05:51:22.631Z,9.13
2019-05-01T05:53:51.912Z,8.77
2019-05-01T05:56:24.148Z,9.03
2019-05-01T05:58:53.261Z,8.73
2019-05-01T06:01:34.408Z,9.53
2019-05-01T06:04:18.125Z,10.18
2019-05-01T06:06:53.085Z,8.58
2019-05-01T06:09:21.319Z,9.85
2019-05-01T06:11:56.387Z,9.15
2019-05-01T06:14:40.485Z,9.58
2019-05-01T06:17:28.610Z,8.65
2019-05-01T06:20:07.742Z,9.40
2019-05-01T06:22:40.750Z,9.88
2019-05-01T06:25:23.038Z,9.48
2019-05-01T06:27:44.847Z,11.22
2019-05-01T06:30:12.629Z,10.75
2019-05-01T06:32:40.178Z,12.53
2019-05-01T06:35:07.962Z,11.12
2019-05-01T06:37:39.820Z,11.20
2019-05-01T06:40:07.464Z,11.00
2019-05-01T06:42:34.680Z,10.80
2019-05-01T06:45:06.793Z,9.55
2019-05-01T06:47:43.140Z,9.93
2019-05-01T06:50:12.481Z,9.65
2019-05-01T06:52:41.024Z,10.58
2019-05-01T06:55:08.262Z,10.05
2019-05-01T06:57:38.496Z,10.13
2019-05-01T07:00:08.092Z,8.73
2019-05-01T07:02:36.986Z,9.20
2019-05-01T07:05:08.958Z,8.58
2019-05-01T07:07:34.691Z,8.20
2019-05-01T07:10:02.182Z,8.08
2019-05-01T07:12:30.051Z,7.90
2019-05-01T07:14:57.315Z,8.48
2019-05-01T07:17:24.670Z,8.25
2019-05-01T07:19:53.710Z,8.23
2019-05-01T07:22:20.939Z,8.38
2019-05-01T07:24:49.167Z,7.83
2019-05-01T07:27:18.828Z,8.90
2019-05-01T07:29:47.369Z,9.08
2019-05-01T07:32:15.126Z,8.73
2019-05-01T07:34:42.882Z,7.60
2019-05-01T07:37:10.111Z,8.50
2019-05-01T07:39:37.416Z,8.38
2019-05-01T07:42:22.936Z,9.80
2019-05-01T07:44:55.797Z,9.65
2019-05-01T07:47:34.030Z,7.90
2019-05-01T07:50:02.487Z,18.92
2019-05-01T07:52:29.727Z,13.65
2019-05-01T07:54:56.988Z,8.45
2019-05-01T07:57:24.492Z,7.37
2019-05-01T07:59:51.726Z,42.27
2019-05-01T08:02:19.046Z,26.62
2019-05-01T08:04:46.354Z,9.03
2019-05-01T08:10:13.925Z,7.85
2019-05-01T08:12:41.181Z,8.40
2019-05-01T08:15:08.435Z,9.75
2019-05-01T08:17:37.560Z,7.75
2019-05-01T08:20:14.915Z,14.10
2019-05-01T08:22:44.881Z,7.58
2019-05-01T08:25:12.129Z,7.17
2019-05-01T08:27:50.986Z,7.42
2019-05-01T08:30:24.204Z,7.47
2019-05-01T08:33:09.919Z,6.72
2019-05-01T08:35:37.717Z,6.83
2019-05-01T08:38:05.697Z,8.53
2019-05-01T08:40:32.969Z,10.25
2019-05-01T08:43:00.196Z,8.35
2019-05-01T08:45:42.526Z,7.12
2019-05-01T08:48:30.773Z,7.00
2019-05-01T08:50:59.055Z,6.35
2019-05-01T08:53:27.428Z,7.05
2019-05-01T08:55:54.709Z,6.90
2019-05-01T08:58:22.099Z,15.23
2019-05-01T09:00:49.350Z,7.53
2019-05-01T09:03:18.605Z,6.00
2019-05-01T09:05:45.852Z,7.33
2019-05-01T09:08:13.306Z,6.22
2019-05-01T09:10:40.535Z,6.05
2019-05-01T09:13:07.871Z,12.25
2019-05-01T09:15:35.678Z,24.87
2019-05-01T09:18:03.194Z,11.95
2019-05-01T09:20:31.848Z,9.65
2019-05-01T09:22:59.170Z,6.97
2019-05-01T09:25:37.496Z,6.12
2019-05-01T09:28:06.568Z,15.90
2019-05-01T09:30:35.649Z,7.37
2019-05-01T09:33:03.047Z,12.63
2019-05-01T09:35:30.826Z,7.60
2019-05-01T09:37:58.348Z,6.75
2019-05-01T09:40:25.798Z,6.05
2019-05-01T09:42:54.828Z,5.92
2019-05-01T09:45:22.160Z,6.10
2019-05-01T09:47:49.442Z,5.72
2019-05-01T09:50:16.696Z,5.78
2019-05-01T09:52:45.737Z,5.65
2019-05-01T09:55:17.858Z,6.17
2019-05-01T09:57:47.493Z,6.28
2019-05-01T10:00:19.120Z,5.58
2019-05-01T10:02:46.538Z,10.10
2019-05-01T10:05:13.764Z,24.77
2019-05-01T10:07:41.048Z,9.33
2019-05-01T10:10:08.504Z,7.42
2019-05-01T10:12:35.906Z,37.17
2019-05-01T10:15:05.049Z,21.17
2019-05-01T10:17:51.783Z,10.85
2019-05-01T10:20:19.601Z,10.40
2019-05-01T10:22:47.236Z,14.70
2019-05-01T10:25:14.527Z,5.53
2019-05-01T10:27:46.636Z,19.17
2019-05-01T10:30:18.564Z,32.55
2019-05-01T10:32:48.463Z,41.92
2019-05-01T10:35:24.957Z,29.30
2019-05-01T10:37:53.300Z,29.80
2019-05-01T10:40:22.316Z,4.90
2019-05-01T10:42:49.629Z,31.75
2019-05-01T10:45:16.976Z,4.37
2019-05-01T10:47:44.238Z,7.37
2019-05-01T10:50:11.497Z,9.65
2019-05-01T10:52:38.784Z,21.07
2019-05-01T10:55:06.364Z,9.30
2019-05-01T10:57:35.199Z,22.25
2019-05-01T11:00:04.708Z,8.55
2019-05-01T11:02:31.951Z,15.28
2019-05-01T11:04:59.213Z,32.23
2019-05-01T11:07:26.604Z,14.03
2019-05-01T11:09:53.826Z,4.85
2019-05-01T11:12:21.443Z,34.00
2019-05-01T11:14:48.721Z,35.85
2019-05-01T11:17:15.936Z,10.45
2019-05-01T11:19:43.194Z,30.05
2019-05-01T11:22:10.493Z,36.40
2019-05-01T11:24:37.713Z,36.77
2019-05-01T11:27:06.154Z,21.30
2019-05-01T11:29:33.475Z,35.35
2019-05-01T11:32:02.507Z,52.43
2019-05-01T11:34:40.288Z,10.13
2019-05-01T11:37:12.058Z,12.50
2019-05-01T11:39:42.091Z,15.70
2019-05-01T11:42:11.798Z,5.97
2019-05-01T11:44:39.061Z,10.58
2019-05-01T11:47:06.370Z,15.83
2019-05-01T11:49:33.602Z,55.90
2019-05-01T11:52:00.820Z,33.20
2019-05-01T11:54:28.150Z,17.82
2019-05-01T11:56:55.406Z,10.75
2019-05-01T11:59:22.615Z,10.30
2019-05-01T12:01:49.950Z,8.55
2019-05-01T12:04:17.168Z,3.92
2019-05-01T12:06:44.419Z,12.18
2019-05-01T12:09:11.685Z,4.75
2019-05-01T12:11:42.549Z,7.58
2019-05-01T12:14:10.148Z,4.50
2019-05-01T12:16:54.432Z,5.05
2019-05-01T12:19:26.333Z,4.60
2019-05-01T12:21:53.589Z,3.40
2019-05-01T12:24:20.889Z,3.60
2019-05-01T12:26:48.112Z,6.03
2019-05-01T12:29:15.342Z,16.95
2019-05-01T12:31:42.654Z,4.45
2019-05-01T12:34:09.952Z,3.95
2019-05-01T12:36:39.546Z,4.10
2019-05-01T12:39:08.634Z,3.85
2019-05-01T12:41:42.004Z,6.50
2019-05-01T12:44:09.693Z,4.58
2019-05-01T12:46:44.501Z,5.00
2019-05-01T12:49:12.374Z,15.53
2019-05-01T12:51:40.668Z,4.00
2019-05-01T12:54:26.280Z,4.28
2019-05-01T12:56:58.152Z,10.60
2019-05-01T12:59:25.475Z,6.45
2019-05-01T13:01:52.705Z,8.28
2019-05-01T13:04:20.008Z,5.42
2019-05-01T13:06:49.449Z,5.00
2019-05-01T13:09:16.346Z,3.15
2019-05-01T13:11:43.599Z,3.30
2019-05-01T13:14:11.093Z,3.27
2019-05-01T13:16:38.352Z,3.37
2019-05-01T13:19:05.586Z,11.33
2019-05-01T13:21:32.896Z,6.83
2019-05-01T13:24:00.731Z,5.45
2019-05-01T13:26:29.761Z,3.00
2019-05-01T13:29:01.664Z,6.05
2019-05-01T13:31:36.631Z,5.28
2019-05-01T13:34:04.031Z,11.15
2019-05-01T13:36:31.354Z,5.40
2019-05-01T13:38:58.613Z,6.22
2019-05-01T13:41:27.229Z,3.58
2019-05-01T13:43:54.457Z,3.10
2019-05-01T13:46:21.676Z,3.50
2019-05-01T13:48:48.982Z,2.87
2019-05-01T13:51:16.207Z,3.00
2019-05-01T13:53:43.513Z,3.25
2019-05-01T13:56:10.893Z,4.47
2019-05-01T13:58:38.169Z,3.08
2019-05-01T14:01:05.418Z,3.30
2019-05-01T14:03:32.870Z,4.08
2019-05-01T14:06:00.110Z,2.70
2019-05-01T14:08:27.497Z,3.40
2019-05-01T14:10:54.792Z,3.45
2019-05-01T14:13:22.026Z,3.47
2019-05-01T14:15:51.468Z,10.30
2019-05-01T14:18:18.765Z,6.58
2019-05-01T14:20:50.855Z,15.35
2019-05-01T14:23:22.812Z,13.62
2019-05-01T14:26:00.774Z,21.50
2019-05-01T14:28:29.054Z,9.93
2019-05-01T14:30:56.404Z,4.00
2019-05-01T14:33:23.639Z,3.27
2019-05-01T14:35:50.932Z,3.92
2019-05-01T14:38:18.620Z,5.70
2019-05-01T14:40:45.926Z,4.90
2019-05-01T14:43:14.195Z,5.58
2019-05-01T14:45:41.565Z,7.55
2019-05-01T14:48:08.817Z,6.03
2019-05-01T14:50:36.098Z,5.92
2019-05-01T14:53:03.316Z,5.30
2019-05-01T14:55:30.591Z,4.72
2019-05-01T14:57:57.867Z,5.25
2019-05-01T15:00:25.132Z,4.70
2019-05-01T15:02:52.407Z,5.20
2019-05-01T15:05:19.706Z,3.47
2019-05-01T15:07:46.921Z,3.67
2019-05-01T15:10:14.264Z,3.47
2019-05-01T15:12:42.980Z,3.77
2019-05-01T15:15:20.954Z,3.98
2019-05-01T15:17:50.343Z,3.58
2019-05-01T15:20:17.578Z,4.50
2019-05-01T15:22:44.824Z,4.60
2019-05-01T15:25:12.742Z,4.72
2019-05-01T15:27:39.976Z,4.40
2019-05-01T15:30:07.225Z,4.72
2019-05-01T15:32:34.486Z,4.40
2019-05-01T15:35:01.958Z,3.55
2019-05-01T15:37:29.196Z,3.35
2019-05-01T15:39:58.293Z,3.27
2019-05-01T15:42:30.124Z,3.33
2019-05-01T15:44:57.419Z,3.50
2019-05-01T15:47:24.698Z,3.17
2019-05-01T15:49:53.103Z,3.10
2019-05-01T15:52:20.827Z,3.08
2019-05-01T15:54:48.116Z,3.87
2019-05-01T15:57:15.331Z,4.00
2019-05-01T15:59:42.613Z,3.90
2019-05-01T16:02:09.824Z,3.95
2019-05-01T16:04:37.315Z,3.70
2019-05-01T16:07:04.607Z,3.50
2019-05-01T16:09:31.856Z,3.62
2019-05-01T16:12:06.764Z,8.20
2019-05-01T16:14:34.012Z,3.70
2019-05-01T16:17:01.310Z,4.55
2019-05-01T16:19:28.908Z,4.05
2019-05-01T16:21:57.512Z,3.62
2019-05-01T16:24:24.795Z,3.50
2019-05-01T16:26:52.173Z,3.83
2019-05-01T16:29:19.431Z,5.00
2019-05-01T16:31:46.676Z,4.03
2019-05-01T16:34:13.953Z,3.95
2019-05-01T16:36:41.256Z,3.67
2019-05-01T16:39:10.389Z,4.37
2019-05-01T16:41:37.715Z,3.98
2019-05-01T16:44:04.979Z,4.08
2019-05-01T16:46:32.729Z,4.37
2019-05-01T16:49:00.201Z,4.55
2019-05-01T16:51:27.541Z,5.00
2019-05-01T16:53:54.850Z,4.75
2019-05-01T16:56:22.157Z,4.40
2019-05-01T16:58:49.405Z,4.00
2019-05-01T17:01:18.538Z,3.90
2019-05-01T17:04:00.218Z,6.80
2019-05-01T17:06:45.761Z,9.35
2019-05-01T17:09:20.840Z,17.92
2019-05-01T17:11:48.143Z,46.70
2019-05-01T17:14:16.322Z,27.98
2019-05-01T17:16:43.682Z,18.85
2019-05-01T17:19:12.506Z,19.40
2019-05-01T17:21:40.430Z,15.05
2019-05-01T17:24:09.737Z,14.78
2019-05-01T17:26:36.949Z,10.48
2019-05-01T17:29:05.649Z,9.38
2019-05-01T17:31:33.004Z,9.18
2019-05-01T17:34:00.268Z,9.43
2019-05-01T17:36:27.699Z,10.05
2019-05-01T17:38:54.990Z,12.25
2019-05-01T17:41:22.741Z,11.08
2019-05-01T17:43:51.294Z,14.87
2019-05-01T17:46:19.612Z,25.45
2019-05-01T17:48:46.847Z,26.48
2019-05-01T17:51:14.133Z,20.27
2019-05-01T17:53:41.399Z,16.82
2019-05-01T17:56:09.916Z,16.90
2019-05-01T17:58:37.658Z,16.42
2019-05-01T18:01:22.036Z,14.33
2019-05-01T18:03:53.593Z,14.93
2019-05-01T18:06:25.462Z,18.87
2019-05-01T18:09:03.000Z,21.10
2019-05-01T18:11:21.759Z,19.90
2019-05-01T18:13:49.057Z,15.55
2019-05-01T18:16:16.301Z,14.87
2019-05-01T18:18:43.528Z,15.28
2019-05-01T18:21:12.218Z,15.13
2019-05-01T18:23:58.436Z,16.15
2019-05-01T18:26:27.542Z,24.25
2019-05-01T18:29:08.509Z,21.65
2019-05-01T18:31:35.804Z,12.98
2019-05-01T18:34:04.508Z,9.53
2019-05-01T18:36:36.860Z,7.55
2019-05-01T18:39:16.170Z,7.35
2019-05-01T18:41:50.226Z,6.70
2019-05-01T18:44:17.438Z,7.00
2019-05-01T18:46:44.660Z,5.72
2019-05-01T18:49:11.990Z,5.85
2019-05-01T18:51:40.736Z,6.20
2019-05-01T18:54:08.240Z,7.17
2019-05-01T18:56:38.132Z,8.05
2019-05-01T18:59:04.621Z,8.60
2019-05-01T19:01:31.931Z,6.97
2019-05-01T19:03:59.394Z,7.10
2019-05-01T19:06:26.568Z,6.50
2019-05-01T19:08:53.915Z,5.70
2019-05-01T19:11:21.759Z,6.65
2019-05-01T19:13:49.346Z,7.67
2019-05-01T19:16:16.591Z,8.00
2019-05-01T19:18:43.882Z,8.10
2019-05-01T19:21:12.581Z,6.50
2019-05-01T19:23:39.807Z,6.65
2019-05-01T19:26:09.034Z,5.40
2019-05-01T19:28:36.279Z,4.65
2019-05-01T19:31:03.555Z,5.47
2019-05-01T19:33:30.841Z,7.35
2019-05-01T19:36:02.732Z,5.05
2019-05-01T19:38:29.481Z,6.80
2019-05-01T19:40:56.669Z,9.65
2019-05-01T19:43:23.923Z,7.20
2019-05-01T19:45:51.517Z,4.58
2019-05-01T19:48:19.021Z,4.90
2019-05-01T19:50:48.380Z,4.55
2019-05-01T19:53:15.964Z,5.37
2019-05-01T19:55:44.875Z,5.20
2019-05-01T19:58:15.759Z,4.45
2019-05-01T20:00:50.627Z,4.35
2019-05-01T20:03:19.800Z,5.00
2019-05-01T20:05:47.455Z,5.10
2019-05-01T20:08:18.219Z,5.37
2019-05-01T20:10:46.657Z,6.58
2019-05-01T20:13:14.361Z,5.92
2019-05-01T20:15:42.581Z,6.22
2019-05-01T20:18:09.985Z,5.10
2019-05-01T20:20:37.493Z,5.33
2019-05-01T20:23:05.524Z,5.60
2019-05-01T20:25:32.779Z,5.30
2019-05-01T20:28:00.297Z,5.50
2019-05-01T20:30:28.050Z,5.72
2019-05-01T20:32:58.255Z,5.40
2019-05-01T20:35:28.427Z,5.40
2019-05-01T20:37:53.695Z,5.17
2019-05-01T20:40:21.133Z,6.08
2019-05-01T20:42:48.362Z,6.90
2019-05-01T20:45:18.163Z,7.00
2019-05-01T20:47:46.008Z,7.62
2019-05-01T20:50:14.166Z,6.70
2019-05-01T20:52:41.513Z,7.30
2019-05-01T20:55:08.749Z,6.42
2019-05-01T20:57:49.789Z,6.05
2019-05-01T21:00:22.158Z,5.90
2019-05-01T21:02:49.466Z,5.37
2019-05-01T21:05:33.448Z,5.58
2019-05-01T21:08:08.769Z,5.60
2019-05-01T21:10:50.578Z,6.25
2019-05-01T21:13:17.897Z,5.03
2019-05-01T21:15:47.364Z,7.22
2019-05-01T21:18:14.575Z,8.10
2019-05-01T21:20:43.871Z,7.58
2019-05-01T21:23:11.748Z,7.83
2019-05-01T21:25:39.019Z,7.10
2019-05-01T21:28:07.233Z,8.68
2019-05-01T21:30:38.785Z,7.67
2019-05-01T21:33:08.216Z,6.95
2019-05-01T21:35:34.113Z,7.17
2019-05-01T21:38:01.412Z,7.67
2019-05-01T21:40:38.747Z,7.72
2019-05-01T21:42:57.759Z,7.90
2019-05-01T21:45:24.989Z,7.60
2019-05-01T21:47:52.897Z,8.03
2019-05-01T21:50:24.850Z,7.60
2019-05-01T21:52:49.262Z,8.13
2019-05-01T21:55:16.487Z,7.45
2019-05-01T21:57:45.027Z,6.80
2019-05-01T22:00:12.291Z,7.85
2019-05-01T22:02:41.646Z,6.33
2019-05-01T22:05:10.475Z,6.60
2019-05-01T22:07:37.687Z,6.30
2019-05-01T22:10:05.696Z,5.72
2019-05-01T22:12:32.969Z,6.00
2019-05-01T22:15:06.291Z,6.15
2019-05-01T22:17:38.520Z,5.90
2019-05-01T22:20:06.028Z,6.30
2019-05-01T22:22:46.834Z,6.40
2019-05-01T22:25:18.662Z,6.25
2019-05-01T22:27:47.756Z,6.17
2019-05-01T22:30:17.499Z,6.22
2019-05-01T22:32:46.538Z,6.17
2019-05-01T22:35:15.701Z,6.08
2019-05-01T22:37:42.918Z,5.72
2019-05-01T22:40:12.204Z,6.15
2019-05-01T22:42:39.962Z,5.80
2019-05-01T22:45:09.081Z,5.87
2019-05-01T22:47:36.296Z,6.05
2019-05-01T22:50:08.058Z,6.67
2019-05-01T22:52:35.295Z,5.85
2019-05-01T22:55:03.362Z,5.85
2019-05-01T22:57:30.623Z,5.85
2019-05-01T22:59:57.861Z,6.10
2019-05-01T23:02:33.492Z,5.60
2019-05-01T23:05:00.746Z,6.03
2019-05-01T23:07:28.058Z,6.15
2019-05-01T23:09:59.382Z,5.40
2019-05-01T23:12:24.440Z,6.22
2019-05-01T23:14:51.708Z,5.87
2019-05-01T23:17:23.368Z,5.80
2019-05-01T23:19:50.638Z,5.90
2019-05-01T23:22:17.946Z,5.50
2019-05-01T23:24:45.258Z,6.00
2019-05-01T23:27:12.663Z,5.95
2019-05-01T23:29:39.862Z,5.72
2019-05-01T23:32:07.574Z,5.53
2019-05-01T23:34:34.814Z,6.33
2019-05-01T23:37:03.037Z,6.40
2019-05-01T23:39:39.747Z,5.67
2019-05-01T23:41:59.408Z,6.55
2019-05-01T23:44:26.718Z,6.05
2019-05-01T23:46:54.463Z,6.12
2019-05-01T23:49:22.088Z,6.83
2019-05-01T23:51:49.350Z,5.80
2019-05-01T23:54:16.728Z,6.53
2019-05-01T23:56:43.982Z,7.42
2019-05-01T23:59:11.197Z,7.00
